Portada
METAR-TAF:

METAR-TAF

Aeroports :

Billings, Montana, Estats Units d'Amèrica

latitud: 45-48-25N, longitud: 108-32-32W, altitud: 1112 m

Observació

L'informe es va fer fa 50 minuts, a les 04:53 UTC
Vent 6 kt del Sud/Sud-Oest
Temperatura 16°C
Humitat 77%
Pressió 1013 hPa
Visibilitat: 16.1 km
Núvols disperses a una alçada de 15000 ft
Cel ennuvolat a una alçada de 25000 ft

METAR: KBIL 040453Z 20006KT 10SM SCT150 BKN250 16/12 A2992 RMK AO2 SLP105 T01610122 $

Hora: 23:43 (05:43 UTC)

Pronòstic

L'informe es va fer fa 23 minuts, a les 05:20 UTC
Pronòstic vàlid del 04 a les 06 UTC al 05 a les 06 UTC
Vent 6 kt amb direcció variable
Visibilitat: 10 km
Núvols disperses a una alçada de 20000 ft
A partir de les 04 a les 1900 UTC
Vent 11 kt del Oest/Nord-Oest amb ràfegues de 18 kt
Visibilitat: 10 km
Núvols disperses a una alçada de 10000 ft
Cel ennuvolat a una alçada de 20000 ft

TAF: KBIL 040520Z 0406/0506 VRB06KT P6SM SCT200 FM041900 30011G18KT P6SM SCT100 BKN200

Observacions i pronòstics meteorològics de més de 4000 aeroports (METAR i TAF).

Les estacions disponibles són els punts grocs i vermells al mapa.

Posi el ratolí al punt desitjat per veure el nom de l'estació.

Feu clic per veure les observacions i els pronòstics meteorològics.

Per canviar el mapa: feu clic els botons verds amb una creu de color negre per apropar; al botó verd amb un guió per allunyar la imatge; o en les fletxes verdes per a mapes adjacents.


METAR-TAF: